sensor_id;sensor_type;location;lat;lon;timestamp;pressure;altitude;pressure_sealevel;temperature;humidity
79006;BME280;69202;45.498;-73.582;2024-01-06T00:02:00;101283.06;;;2.50;59.85
79006;BME280;69202;45.498;-73.582;2024-01-06T00:04:27;101281.13;;;2.52;60.62
79006;BME280;69202;45.498;-73.582;2024-01-06T00:06:53;101291.84;;;2.62;61.11
79006;BME280;69202;45.498;-73.582;2024-01-06T00:09:19;101294.84;;;2.78;62.13
79006;BME280;69202;45.498;-73.582;2024-01-06T00:11:45;101298.97;;;2.82;60.77
79006;BME280;69202;45.498;-73.582;2024-01-06T00:14:11;101281.63;;;2.76;60.90
79006;BME280;69202;45.498;-73.582;2024-01-06T00:16:39;101283.88;;;2.81;60.12
79006;BME280;69202;45.498;-73.582;2024-01-06T00:19:06;101294.72;;;2.79;59.69
79006;BME280;69202;45.498;-73.582;2024-01-06T00:21:32;101286.00;;;2.77;59.88
79006;BME280;69202;45.498;-73.582;2024-01-06T00:23:57;101285.00;;;2.78;60.47
79006;BME280;69202;45.498;-73.582;2024-01-06T00:26:23;101283.78;;;2.82;60.46
79006;BME280;69202;45.498;-73.582;2024-01-06T00:28:52;101298.13;;;2.81;59.85
79006;BME280;69202;45.498;-73.582;2024-01-06T00:31:18;101294.03;;;2.87;60.80
79006;BME280;69202;45.498;-73.582;2024-01-06T00:33:45;101273.25;;;2.90;60.85
79006;BME280;69202;45.498;-73.582;2024-01-06T00:36:11;101279.19;;;2.94;60.38
79006;BME280;69202;45.498;-73.582;2024-01-06T00:38:37;101276.66;;;2.93;59.96
79006;BME280;69202;45.498;-73.582;2024-01-06T00:41:03;101284.09;;;2.99;60.39
79006;BME280;69202;45.498;-73.582;2024-01-06T00:43:29;101272.28;;;3.01;60.76
79006;BME280;69202;45.498;-73.582;2024-01-06T00:45:55;101269.22;;;3.06;60.20
79006;BME280;69202;45.498;-73.582;2024-01-06T00:48:20;101264.44;;;3.09;61.34
79006;BME280;69202;45.498;-73.582;2024-01-06T00:50:46;101269.41;;;3.24;61.68
79006;BME280;69202;45.498;-73.582;2024-01-06T00:53:12;101262.66;;;3.29;60.95
79006;BME280;69202;45.498;-73.582;2024-01-06T00:55:38;101277.56;;;3.32;60.27
79006;BME280;69202;45.498;-73.582;2024-01-06T00:58:04;101271.50;;;3.30;59.75
79006;BME280;69202;45.498;-73.582;2024-01-06T01:00:30;101259.97;;;3.29;60.73
79006;BME280;69202;45.498;-73.582;2024-01-06T01:02:56;101264.91;;;3.34;60.28
79006;BME280;69202;45.498;-73.582;2024-01-06T01:05:22;101259.28;;;3.37;60.17
79006;BME280;69202;45.498;-73.582;2024-01-06T01:07:48;101270.13;;;3.35;59.58
79006;BME280;69202;45.498;-73.582;2024-01-06T01:10:14;101273.78;;;3.34;59.52
79006;BME280;69202;45.498;-73.582;2024-01-06T01:12:40;101280.94;;;3.43;59.92
79006;BME280;69202;45.498;-73.582;2024-01-06T01:15:06;101270.69;;;3.39;59.48
79006;BME280;69202;45.498;-73.582;2024-01-06T01:17:32;101258.16;;;3.30;60.08
79006;BME280;69202;45.498;-73.582;2024-01-06T01:19:58;101285.59;;;3.51;58.99
79006;BME280;69202;45.498;-73.582;2024-01-06T01:22:24;101276.88;;;3.49;58.60
79006;BME280;69202;45.498;-73.582;2024-01-06T01:24:50;101267.31;;;3.46;59.04
79006;BME280;69202;45.498;-73.582;2024-01-06T01:27:16;101269.28;;;3.44;58.25
79006;BME280;69202;45.498;-73.582;2024-01-06T01:29:42;101278.16;;;3.45;58.52
79006;BME280;69202;45.498;-73.582;2024-01-06T01:32:07;101261.81;;;3.38;58.59
79006;BME280;69202;45.498;-73.582;2024-01-06T01:34:33;101280.81;;;3.45;57.75
79006;BME280;69202;45.498;-73.582;2024-01-06T01:37:00;101285.72;;;3.40;58.58
79006;BME280;69202;45.498;-73.582;2024-01-06T01:39:26;101293.63;;;3.51;59.42
79006;BME280;69202;45.498;-73.582;2024-01-06T01:41:52;101225.25;;;3.39;61.29
79006;BME280;69202;45.498;-73.582;2024-01-06T01:44:17;101299.34;;;4.14;59.93
79006;BME280;69202;45.498;-73.582;2024-01-06T01:46:43;101290.63;;;4.22;59.59
79006;BME280;69202;45.498;-73.582;2024-01-06T01:49:09;101300.00;;;4.45;59.45
79006;BME280;69202;45.498;-73.582;2024-01-06T01:51:36;101302.25;;;4.50;59.84
79006;BME280;69202;45.498;-73.582;2024-01-06T01:54:04;101303.75;;;4.62;59.43
79006;BME280;69202;45.498;-73.582;2024-01-06T01:56:31;101282.72;;;4.67;59.97
79006;BME280;69202;45.498;-73.582;2024-01-06T01:59:11;101294.84;;;4.71;58.45
79006;BME280;69202;45.498;-73.582;2024-01-06T02:01:37;101289.72;;;4.50;57.95
79006;BME280;69202;45.498;-73.582;2024-01-06T02:04:04;101272.72;;;4.22;57.17
79006;BME280;69202;45.498;-73.582;2024-01-06T02:06:29;101291.16;;;4.25;57.14
79006;BME280;69202;45.498;-73.582;2024-01-06T02:08:55;101290.19;;;4.17;57.51
79006;BME280;69202;45.498;-73.582;2024-01-06T02:11:22;101300.50;;;4.12;56.84
79006;BME280;69202;45.498;-73.582;2024-01-06T02:13:48;101296.84;;;4.13;58.13
79006;BME280;69202;45.498;-73.582;2024-01-06T02:16:13;101298.13;;;4.09;56.83
79006;BME280;69202;45.498;-73.582;2024-01-06T02:18:39;101299.97;;;3.98;56.47
79006;BME280;69202;45.498;-73.582;2024-01-06T02:21:07;101298.13;;;3.99;57.13
79006;BME280;69202;45.498;-73.582;2024-01-06T02:23:35;101269.00;;;3.76;56.87
79006;BME280;69202;45.498;-73.582;2024-01-06T02:26:01;101286.59;;;3.98;58.40
79006;BME280;69202;45.498;-73.582;2024-01-06T02:28:27;101284.44;;;4.02;58.13
79006;BME280;69202;45.498;-73.582;2024-01-06T02:30:53;101280.06;;;4.20;58.86
79006;BME280;69202;45.498;-73.582;2024-01-06T02:33:19;101280.59;;;4.24;58.80
79006;BME280;69202;45.498;-73.582;2024-01-06T02:35:46;101291.34;;;4.14;57.53
79006;BME280;69202;45.498;-73.582;2024-01-06T02:38:12;101290.66;;;4.02;57.40
79006;BME280;69202;45.498;-73.582;2024-01-06T02:40:38;101277.88;;;3.96;57.24
79006;BME280;69202;45.498;-73.582;2024-01-06T02:43:04;101296.00;;;4.02;57.62
79006;BME280;69202;45.498;-73.582;2024-01-06T02:45:30;101291.09;;;3.98;57.49
79006;BME280;69202;45.498;-73.582;2024-01-06T02:47:56;101304.31;;;3.99;58.11
79006;BME280;69202;45.498;-73.582;2024-01-06T02:50:21;101295.69;;;4.15;59.30
79006;BME280;69202;45.498;-73.582;2024-01-06T02:52:47;101303.88;;;4.14;58.34
79006;BME280;69202;45.498;-73.582;2024-01-06T02:55:14;101297.97;;;4.10;58.70
79006;BME280;69202;45.498;-73.582;2024-01-06T02:57:40;101310.06;;;4.14;58.70
79006;BME280;69202;45.498;-73.582;2024-01-06T03:00:08;101302.88;;;4.15;58.28
79006;BME280;69202;45.498;-73.582;2024-01-06T03:02:34;101311.19;;;4.12;57.41
79006;BME280;69202;45.498;-73.582;2024-01-06T03:05:02;101305.72;;;4.03;56.53
79006;BME280;69202;45.498;-73.582;2024-01-06T03:07:28;101310.81;;;4.07;57.39
79006;BME280;69202;45.498;-73.582;2024-01-06T03:09:54;101310.81;;;4.07;57.09
79006;BME280;69202;45.498;-73.582;2024-01-06T03:12:19;101312.47;;;4.17;57.53
79006;BME280;69202;45.498;-73.582;2024-01-06T03:14:45;101320.91;;;4.22;57.86
79006;BME280;69202;45.498;-73.582;2024-01-06T03:17:11;101321.19;;;4.19;57.24
79006;BME280;69202;45.498;-73.582;2024-01-06T03:19:38;101318.91;;;4.24;57.80
79006;BME280;69202;45.498;-73.582;2024-01-06T03:22:05;101323.44;;;4.24;58.00
79006;BME280;69202;45.498;-73.582;2024-01-06T03:24:31;101325.97;;;4.25;57.87
79006;BME280;69202;45.498;-73.582;2024-01-06T03:26:57;101324.09;;;4.35;58.75
79006;BME280;69202;45.498;-73.582;2024-01-06T03:29:23;101309.19;;;4.33;57.71
79006;BME280;69202;45.498;-73.582;2024-01-06T03:31:49;101307.53;;;4.22;57.21
79006;BME280;69202;45.498;-73.582;2024-01-06T03:34:15;101304.00;;;4.12;57.44
79006;BME280;69202;45.498;-73.582;2024-01-06T03:36:41;101325.13;;;4.25;57.03
79006;BME280;69202;45.498;-73.582;2024-01-06T03:39:07;101328.53;;;4.17;57.50
79006;BME280;69202;45.498;-73.582;2024-01-06T03:41:33;101315.28;;;4.06;57.88
79006;BME280;69202;45.498;-73.582;2024-01-06T03:43:59;101337.56;;;4.07;57.46
79006;BME280;69202;45.498;-73.582;2024-01-06T03:46:25;101344.16;;;4.12;57.53
79006;BME280;69202;45.498;-73.582;2024-01-06T03:48:51;101342.91;;;4.07;57.56
79006;BME280;69202;45.498;-73.582;2024-01-06T03:51:17;101346.28;;;3.99;57.83
79006;BME280;69202;45.498;-73.582;2024-01-06T03:53:43;101353.59;;;4.07;58.59
79006;BME280;69202;45.498;-73.582;2024-01-06T03:56:09;101359.22;;;4.32;59.87
79006;BME280;69202;45.498;-73.582;2024-01-06T03:58:35;101349.16;;;4.54;59.44
79006;BME280;69202;45.498;-73.582;2024-01-06T04:01:01;101350.28;;;4.61;58.40
79006;BME280;69202;45.498;-73.582;2024-01-06T04:03:29;101355.94;;;4.48;56.98
79006;BME280;69202;45.498;-73.582;2024-01-06T04:05:56;101349.19;;;4.44;58.24
79006;BME280;69202;45.498;-73.582;2024-01-06T04:08:22;101360.44;;;4.48;56.94
79006;BME280;69202;45.498;-73.582;2024-01-06T04:10:49;101361.72;;;4.34;56.26
79006;BME280;69202;45.498;-73.582;2024-01-06T04:13:15;101367.53;;;4.20;56.85
79006;BME280;69202;45.498;-73.582;2024-01-06T04:15:41;101362.34;;;4.09;55.76
79006;BME280;69202;45.498;-73.582;2024-01-06T04:18:07;101369.06;;;4.03;56.10
79006;BME280;69202;45.498;-73.582;2024-01-06T04:20:34;101362.19;;;4.00;55.87
79006;BME280;69202;45.498;-73.582;2024-01-06T04:23:00;101365.16;;;4.07;57.28
79006;BME280;69202;45.498;-73.582;2024-01-06T04:25:26;101369.78;;;4.05;56.63
79006;BME280;69202;45.498;-73.582;2024-01-06T04:27:52;101358.38;;;4.03;56.04
79006;BME280;69202;45.498;-73.582;2024-01-06T04:30:18;101375.13;;;4.15;56.90
79006;BME280;69202;45.498;-73.582;2024-01-06T04:32:46;101359.38;;;4.02;56.09
79006;BME280;69202;45.498;-73.582;2024-01-06T04:35:14;101371.91;;;4.01;55.57
79006;BME280;69202;45.498;-73.582;2024-01-06T04:37:40;101362.88;;;3.93;55.79
79006;BME280;69202;45.498;-73.582;2024-01-06T04:40:06;101386.81;;;4.04;56.50
79006;BME280;69202;45.498;-73.582;2024-01-06T04:42:33;101379.78;;;4.03;56.62
79006;BME280;69202;45.498;-73.582;2024-01-06T04:44:59;101398.38;;;4.14;57.84
79006;BME280;69202;45.498;-73.582;2024-01-06T04:47:25;101389.63;;;4.31;56.78
79006;BME280;69202;45.498;-73.582;2024-01-06T04:49:53;101395.41;;;4.27;56.23
79006;BME280;69202;45.498;-73.582;2024-01-06T04:52:20;101405.84;;;4.20;56.42
79006;BME280;69202;45.498;-73.582;2024-01-06T04:54:46;101407.13;;;4.07;54.86
79006;BME280;69202;45.498;-73.582;2024-01-06T04:57:13;101403.59;;;3.87;54.94
79006;BME280;69202;45.498;-73.582;2024-01-06T04:59:39;101416.13;;;3.86;54.78
79006;BME280;69202;45.498;-73.582;2024-01-06T05:02:06;101409.06;;;3.75;54.40
79006;BME280;69202;45.498;-73.582;2024-01-06T05:04:32;101419.13;;;3.62;54.53
79006;BME280;69202;45.498;-73.582;2024-01-06T05:06:58;101425.88;;;3.47;53.56
79006;BME280;69202;45.498;-73.582;2024-01-06T05:09:27;101409.44;;;3.21;53.85
79006;BME280;69202;45.498;-73.582;2024-01-06T05:11:53;101437.28;;;3.18;53.79
79006;BME280;69202;45.498;-73.582;2024-01-06T05:14:19;101436.84;;;3.13;53.54
79006;BME280;69202;45.498;-73.582;2024-01-06T05:16:45;101432.78;;;3.19;55.78
79006;BME280;69202;45.498;-73.582;2024-01-06T05:19:11;101428.78;;;3.34;56.38
79006;BME280;69202;45.498;-73.582;2024-01-06T05:21:37;101426.25;;;3.42;56.38
79006;BME280;69202;45.498;-73.582;2024-01-06T05:24:04;101421.81;;;3.62;56.20
79006;BME280;69202;45.498;-73.582;2024-01-06T05:26:30;101443.91;;;3.64;55.66
79006;BME280;69202;45.498;-73.582;2024-01-06T05:28:56;101430.72;;;3.82;55.98
79006;BME280;69202;45.498;-73.582;2024-01-06T05:31:22;101427.94;;;4.03;56.85
79006;BME280;69202;45.498;-73.582;2024-01-06T05:33:48;101422.44;;;4.04;56.97
79006;BME280;69202;45.498;-73.582;2024-01-06T05:36:18;101419.94;;;4.13;55.87
79006;BME280;69202;45.498;-73.582;2024-01-06T05:38:45;101427.94;;;4.03;54.55
79006;BME280;69202;45.498;-73.582;2024-01-06T05:41:11;101408.63;;;3.80;54.57
79006;BME280;69202;45.498;-73.582;2024-01-06T05:43:37;101421.88;;;4.01;55.98
79006;BME280;69202;45.498;-73.582;2024-01-06T05:46:03;101438.22;;;4.27;56.20
79006;BME280;69202;45.498;-73.582;2024-01-06T05:48:29;101406.69;;;4.11;56.10
79006;BME280;69202;45.498;-73.582;2024-01-06T05:50:56;101446.84;;;4.30;55.23
79006;BME280;69202;45.498;-73.582;2024-01-06T05:53:22;101451.63;;;4.08;54.12
79006;BME280;69202;45.498;-73.582;2024-01-06T05:55:48;101450.47;;;3.91;54.40
79006;BME280;69202;45.498;-73.582;2024-01-06T05:58:15;101464.94;;;3.79;54.01
79006;BME280;69202;45.498;-73.582;2024-01-06T06:00:40;101466.28;;;3.63;52.83
79006;BME280;69202;45.498;-73.582;2024-01-06T06:03:06;101455.38;;;3.36;51.43
79006;BME280;69202;45.498;-73.582;2024-01-06T06:05:33;101462.59;;;3.14;51.51
79006;BME280;69202;45.498;-73.582;2024-01-06T06:07:59;101463.47;;;2.94;51.71
79006;BME280;69202;45.498;-73.582;2024-01-06T06:10:25;101469.00;;;2.81;52.62
79006;BME280;69202;45.498;-73.582;2024-01-06T06:13:05;101473.53;;;2.70;52.49
79006;BME280;69202;45.498;-73.582;2024-01-06T06:15:31;101464.19;;;2.54;52.98
79006;BME280;69202;45.498;-73.582;2024-01-06T06:17:58;101488.91;;;2.56;53.81
79006;BME280;69202;45.498;-73.582;2024-01-06T06:20:27;101472.94;;;2.45;53.52
79006;BME280;69202;45.498;-73.582;2024-01-06T06:22:53;101491.53;;;2.36;53.42
79006;BME280;69202;45.498;-73.582;2024-01-06T06:25:19;101490.78;;;2.13;52.49
79006;BME280;69202;45.498;-73.582;2024-01-06T06:27:45;101515.00;;;2.21;53.93
79006;BME280;69202;45.498;-73.582;2024-01-06T06:30:11;101516.84;;;2.20;54.04
79006;BME280;69202;45.498;-73.582;2024-01-06T06:32:37;101520.25;;;2.11;53.16
79006;BME280;69202;45.498;-73.582;2024-01-06T06:35:03;101529.72;;;1.93;52.18
79006;BME280;69202;45.498;-73.582;2024-01-06T06:37:29;101559.66;;;1.96;53.03
79006;BME280;69202;45.498;-73.582;2024-01-06T06:39:55;101550.69;;;1.97;53.44
79006;BME280;69202;45.498;-73.582;2024-01-06T06:42:20;101581.47;;;2.13;53.29
79006;BME280;69202;45.498;-73.582;2024-01-06T06:44:46;101584.41;;;1.98;52.78
79006;BME280;69202;45.498;-73.582;2024-01-06T06:47:12;101617.84;;;1.91;51.76
79006;BME280;69202;45.498;-73.582;2024-01-06T06:49:38;101611.03;;;1.65;51.07
79006;BME280;69202;45.498;-73.582;2024-01-06T06:52:05;101619.97;;;1.41;51.25
79006;BME280;69202;45.498;-73.582;2024-01-06T06:54:32;101611.81;;;1.21;51.63
79006;BME280;69202;45.498;-73.582;2024-01-06T06:56:58;101640.88;;;1.24;51.58
79006;BME280;69202;45.498;-73.582;2024-01-06T06:59:24;101639.38;;;1.08;51.44
79006;BME280;69202;45.498;-73.582;2024-01-06T07:01:51;101652.41;;;1.00;51.26
79006;BME280;69202;45.498;-73.582;2024-01-06T07:04:18;101663.56;;;0.81;50.44
79006;BME280;69202;45.498;-73.582;2024-01-06T07:06:45;101655.34;;;0.61;49.71
79006;BME280;69202;45.498;-73.582;2024-01-06T07:09:11;101674.75;;;0.50;49.78
79006;BME280;69202;45.498;-73.582;2024-01-06T07:11:37;101655.09;;;0.40;49.72
79006;BME280;69202;45.498;-73.582;2024-01-06T07:14:03;101655.75;;;0.31;49.40
79006;BME280;69202;45.498;-73.582;2024-01-06T07:16:29;101656.72;;;0.29;49.60
79006;BME280;69202;45.498;-73.582;2024-01-06T07:18:55;101626.81;;;0.02;49.64
79006;BME280;69202;45.498;-73.582;2024-01-06T07:21:20;101653.91;;;0.07;50.06
79006;BME280;69202;45.498;-73.582;2024-01-06T07:23:48;101678.75;;;0.19;50.54
79006;BME280;69202;45.498;-73.582;2024-01-06T07:26:16;101686.31;;;0.25;50.94
79006;BME280;69202;45.498;-73.582;2024-01-06T07:28:45;101680.06;;;0.13;51.02
79006;BME280;69202;45.498;-73.582;2024-01-06T07:31:10;101684.72;;;0.10;51.23
79006;BME280;69202;45.498;-73.582;2024-01-06T07:33:36;101700.47;;;0.13;51.29
79006;BME280;69202;45.498;-73.582;2024-01-06T07:36:04;101707.06;;;0.07;50.12
79006;BME280;69202;45.498;-73.582;2024-01-06T07:38:30;101701.31;;;-0.12;48.71
79006;BME280;69202;45.498;-73.582;2024-01-06T07:40:56;101699.28;;;-0.21;49.33
79006;BME280;69202;45.498;-73.582;2024-01-06T07:43:22;101703.56;;;-0.19;49.29
79006;BME280;69202;45.498;-73.582;2024-01-06T07:45:49;101717.59;;;-0.30;47.41
79006;BME280;69202;45.498;-73.582;2024-01-06T07:48:16;101728.50;;;-0.47;47.16
79006;BME280;69202;45.498;-73.582;2024-01-06T07:50:42;101724.03;;;-0.59;46.79
79006;BME280;69202;45.498;-73.582;2024-01-06T07:53:08;101740.16;;;-0.62;46.84
79006;BME280;69202;45.498;-73.582;2024-01-06T07:55:34;101729.31;;;-0.72;46.33
79006;BME280;69202;45.498;-73.582;2024-01-06T07:58:00;101733.09;;;-0.76;46.20
79006;BME280;69202;45.498;-73.582;2024-01-06T08:00:26;101701.47;;;-1.06;46.28
79006;BME280;69202;45.498;-73.582;2024-01-06T08:02:52;101730.75;;;-0.80;47.34
79006;BME280;69202;45.498;-73.582;2024-01-06T08:05:18;101756.22;;;-0.91;45.90
79006;BME280;69202;45.498;-73.582;2024-01-06T08:07:44;101762.59;;;-1.07;44.64
79006;BME280;69202;45.498;-73.582;2024-01-06T08:10:10;101768.78;;;-1.21;43.87
79006;BME280;69202;45.498;-73.582;2024-01-06T08:12:36;101773.72;;;-1.29;44.28
79006;BME280;69202;45.498;-73.582;2024-01-06T08:15:03;101782.09;;;-1.35;44.02
79006;BME280;69202;45.498;-73.582;2024-01-06T08:17:30;101793.63;;;-1.51;43.63
79006;BME280;69202;45.498;-73.582;2024-01-06T08:19:56;101795.25;;;-1.62;43.29
79006;BME280;69202;45.498;-73.582;2024-01-06T08:22:21;101787.22;;;-1.75;43.55
79006;BME280;69202;45.498;-73.582;2024-01-06T08:24:47;101783.03;;;-1.79;43.74
79006;BME280;69202;45.498;-73.582;2024-01-06T08:27:13;101769.47;;;-1.89;44.32
79006;BME280;69202;45.498;-73.582;2024-01-06T08:29:39;101770.81;;;-1.96;44.10
79006;BME280;69202;45.498;-73.582;2024-01-06T08:32:05;101777.50;;;-2.05;43.95
79006;BME280;69202;45.498;-73.582;2024-01-06T08:34:31;101755.06;;;-2.27;44.73
79006;BME280;69202;45.498;-73.582;2024-01-06T08:36:57;101793.41;;;-2.05;44.43
79006;BME280;69202;45.498;-73.582;2024-01-06T08:39:23;101789.81;;;-2.04;44.81
79006;BME280;69202;45.498;-73.582;2024-01-06T08:41:50;101795.88;;;-2.01;44.82
79006;BME280;69202;45.498;-73.582;2024-01-06T08:44:16;101788.47;;;-2.11;43.72
79006;BME280;69202;45.498;-73.582;2024-01-06T08:46:42;101798.91;;;-2.08;44.52
79006;BME280;69202;45.498;-73.582;2024-01-06T08:49:08;101814.41;;;-2.16;43.44
79006;BME280;69202;45.498;-73.582;2024-01-06T08:51:33;101811.16;;;-2.21;43.27
79006;BME280;69202;45.498;-73.582;2024-01-06T08:54:01;101783.59;;;-2.33;43.64
79006;BME280;69202;45.498;-73.582;2024-01-06T08:56:30;101802.94;;;-2.16;44.02
79006;BME280;69202;45.498;-73.582;2024-01-06T08:58:56;101827.88;;;-2.20;42.31
79006;BME280;69202;45.498;-73.582;2024-01-06T09:01:22;101823.06;;;-2.28;41.94
79006;BME280;69202;45.498;-73.582;2024-01-06T09:03:48;101832.63;;;-2.25;41.93
79006;BME280;69202;45.498;-73.582;2024-01-06T09:06:15;101834.59;;;-2.29;41.48
79006;BME280;69202;45.498;-73.582;2024-01-06T09:08:41;101836.22;;;-2.26;41.91
79006;BME280;69202;45.498;-73.582;2024-01-06T09:11:07;101837.94;;;-2.41;40.90
79006;BME280;69202;45.498;-73.582;2024-01-06T09:13:33;101837.19;;;-2.43;40.92
79006;BME280;69202;45.498;-73.582;2024-01-06T09:15:59;101818.44;;;-2.40;41.96
79006;BME280;69202;45.498;-73.582;2024-01-06T09:18:28;101728.56;;;-2.87;41.87
79006;BME280;69202;45.498;-73.582;2024-01-06T09:20:54;101809.66;;;-2.41;41.59
79006;BME280;69202;45.498;-73.582;2024-01-06T09:23:22;101814.19;;;-2.43;41.22
79006;BME280;69202;45.498;-73.582;2024-01-06T09:25:48;101771.38;;;-2.65;41.36
79006;BME280;69202;45.498;-73.582;2024-01-06T09:28:18;101811.75;;;-2.46;40.76
79006;BME280;69202;45.498;-73.582;2024-01-06T09:30:46;101810.13;;;-2.48;40.80
79006;BME280;69202;45.498;-73.582;2024-01-06T09:33:12;101811.47;;;-2.41;41.85
79006;BME280;69202;45.498;-73.582;2024-01-06T09:35:43;101817.69;;;-2.42;41.62
79006;BME280;69202;45.498;-73.582;2024-01-06T09:38:10;101803.25;;;-2.37;42.17
79006;BME280;69202;45.498;-73.582;2024-01-06T09:40:41;101800.88;;;-2.41;42.18
79006;BME280;69202;45.498;-73.582;2024-01-06T09:43:07;101813.72;;;-2.49;41.86
79006;BME280;69202;45.498;-73.582;2024-01-06T09:45:33;101791.19;;;-2.72;41.43
79006;BME280;69202;45.498;-73.582;2024-01-06T09:48:14;101812.25;;;-2.55;42.05
79006;BME280;69202;45.498;-73.582;2024-01-06T09:50:41;101815.25;;;-2.61;42.01
79006;BME280;69202;45.498;-73.582;2024-01-06T09:53:10;101816.28;;;-2.64;42.23
79006;BME280;69202;45.498;-73.582;2024-01-06T09:55:37;101827.91;;;-2.66;41.76
79006;BME280;69202;45.498;-73.582;2024-01-06T09:58:04;101824.59;;;-2.70;41.81
79006;BME280;69202;45.498;-73.582;2024-01-06T10:00:31;101825.53;;;-2.71;41.28
79006;BME280;69202;45.498;-73.582;2024-01-06T10:02:57;101833.47;;;-2.71;42.03
79006;BME280;69202;45.498;-73.582;2024-01-06T10:05:23;101834.66;;;-2.76;41.40
79006;BME280;69202;45.498;-73.582;2024-01-06T10:07:49;101800.53;;;-2.97;41.27
79006;BME280;69202;45.498;-73.582;2024-01-06T10:10:15;101827.06;;;-2.82;40.37
79006;BME280;69202;45.498;-73.582;2024-01-06T10:12:42;101831.59;;;-2.84;40.67
79006;BME280;69202;45.498;-73.582;2024-01-06T10:15:10;101840.81;;;-2.92;40.35
79006;BME280;69202;45.498;-73.582;2024-01-06T10:17:40;101847.09;;;-2.94;40.61
79006;BME280;69202;45.498;-73.582;2024-01-06T10:20:11;101857.47;;;-2.89;41.00
79006;BME280;69202;45.498;-73.582;2024-01-06T10:22:39;101854.72;;;-2.88;41.18
79006;BME280;69202;45.498;-73.582;2024-01-06T10:25:07;101867.19;;;-2.90;40.87
79006;BME280;69202;45.498;-73.582;2024-01-06T10:27:37;101851.47;;;-3.09;40.85
79006;BME280;69202;45.498;-73.582;2024-01-06T10:30:04;101891.69;;;-2.86;40.89
79006;BME280;69202;45.498;-73.582;2024-01-06T10:32:32;101897.81;;;-2.86;40.61
79006;BME280;69202;45.498;-73.582;2024-01-06T10:35:00;101902.53;;;-2.91;41.00
79006;BME280;69202;45.498;-73.582;2024-01-06T10:37:30;101920.03;;;-2.88;40.77
79006;BME280;69202;45.498;-73.582;2024-01-06T10:40:09;101915.41;;;-2.85;40.69
79006;BME280;69202;45.498;-73.582;2024-01-06T10:42:36;101916.16;;;-2.83;41.03
79006;BME280;69202;45.498;-73.582;2024-01-06T10:45:07;101809.69;;;-3.51;40.33
79006;BME280;69202;45.498;-73.582;2024-01-06T10:47:35;101937.69;;;-2.89;40.68
79006;BME280;69202;45.498;-73.582;2024-01-06T10:50:01;101941.28;;;-2.90;40.67
79006;BME280;69202;45.498;-73.582;2024-01-06T10:52:28;101943.66;;;-3.01;40.76
79006;BME280;69202;45.498;-73.582;2024-01-06T10:54:55;101950.47;;;-2.97;39.86
79006;BME280;69202;45.498;-73.582;2024-01-06T10:57:21;101949.06;;;-3.04;39.32
79006;BME280;69202;45.498;-73.582;2024-01-06T10:59:54;101960.75;;;-3.08;39.26
79006;BME280;69202;45.498;-73.582;2024-01-06T11:02:24;101959.28;;;-3.14;38.87
79006;BME280;69202;45.498;-73.582;2024-01-06T11:04:54;101929.41;;;-3.32;38.69
79006;BME280;69202;45.498;-73.582;2024-01-06T11:07:21;101954.34;;;-3.20;39.38
79006;BME280;69202;45.498;-73.582;2024-01-06T11:09:57;101959.38;;;-3.15;39.24
79006;BME280;69202;45.498;-73.582;2024-01-06T11:12:28;101966.28;;;-3.13;39.40
79006;BME280;69202;45.498;-73.582;2024-01-06T11:14:54;101958.28;;;-3.11;39.15
79006;BME280;69202;45.498;-73.582;2024-01-06T11:17:52;101957.94;;;-3.05;39.52
79006;BME280;69202;45.498;-73.582;2024-01-06T11:20:26;101962.47;;;-3.07;39.67
79006;BME280;69202;45.498;-73.582;2024-01-06T11:23:18;101965.72;;;-3.02;39.55
79006;BME280;69202;45.498;-73.582;2024-01-06T11:25:47;101976.47;;;-3.05;39.76
79006;BME280;69202;45.498;-73.582;2024-01-06T11:28:13;101973.72;;;-3.04;39.75
79006;BME280;69202;45.498;-73.582;2024-01-06T11:30:39;101985.25;;;-3.05;39.54
79006;BME280;69202;45.498;-73.582;2024-01-06T11:33:05;101986.28;;;-3.07;39.49
79006;BME280;69202;45.498;-73.582;2024-01-06T11:35:31;101992.69;;;-3.11;39.18
79006;BME280;69202;45.498;-73.582;2024-01-06T11:38:00;101990.25;;;-3.16;39.19
79006;BME280;69202;45.498;-73.582;2024-01-06T11:40:36;101967.69;;;-3.23;38.72
79006;BME280;69202;45.498;-73.582;2024-01-06T11:43:12;101966.84;;;-3.24;39.19
79006;BME280;69202;45.498;-73.582;2024-01-06T11:45:40;101973.06;;;-3.25;39.32
79006;BME280;69202;45.498;-73.582;2024-01-06T11:48:10;101987.22;;;-3.26;39.58
79006;BME280;69202;45.498;-73.582;2024-01-06T11:50:38;101982.66;;;-3.22;39.16
79006;BME280;69202;45.498;-73.582;2024-01-06T11:53:06;101980.91;;;-3.23;39.60
79006;BME280;69202;45.498;-73.582;2024-01-06T11:55:32;101896.31;;;-3.73;39.65
79006;BME280;69202;45.498;-73.582;2024-01-06T11:58:00;101985.53;;;-3.27;39.77
79006;BME280;69202;45.498;-73.582;2024-01-06T12:00:32;101957.25;;;-3.42;39.85
79006;BME280;69202;45.498;-73.582;2024-01-06T12:02:59;101995.88;;;-3.22;40.01
79006;BME280;69202;45.498;-73.582;2024-01-06T12:05:27;101981.72;;;-3.21;40.00
79006;BME280;69202;45.498;-73.582;2024-01-06T12:07:57;101994.78;;;-3.18;40.15
79006;BME280;69202;45.498;-73.582;2024-01-06T12:10:25;101989.66;;;-3.21;39.68
79006;BME280;69202;45.498;-73.582;2024-01-06T12:12:59;101993.47;;;-3.27;39.63
79006;BME280;69202;45.498;-73.582;2024-01-06T12:15:26;101989.97;;;-3.27;40.86
79006;BME280;69202;45.498;-73.582;2024-01-06T12:17:52;102002.31;;;-3.28;40.26
79006;BME280;69202;45.498;-73.582;2024-01-06T12:20:18;102004.03;;;-3.27;40.34
79006;BME280;69202;45.498;-73.582;2024-01-06T12:22:44;102006.00;;;-3.30;40.50
79006;BME280;69202;45.498;-73.582;2024-01-06T12:25:10;101999.28;;;-3.37;39.88
79006;BME280;69202;45.498;-73.582;2024-01-06T12:27:41;101991.81;;;-3.46;40.06
79006;BME280;69202;45.498;-73.582;2024-01-06T12:30:15;101980.22;;;-3.44;40.43
79006;BME280;69202;45.498;-73.582;2024-01-06T12:32:49;102003.66;;;-3.36;40.39
79006;BME280;69202;45.498;-73.582;2024-01-06T12:35:16;102008.41;;;-3.43;40.28